Highland Heights, Kentucky
Current Conditions -  °F | °C
As of 8:53 AM on Saturday 22 Nov 2014 (Local Time) from KLUK Reporting Station
Overcast Overcast  
Wind Chill: 30°   Ceiling: 10000
Heat Index: 35°   Visibility: 10mi
Dew Point: 29°   Wind: 6mph
Humidity: 78%   Direction: 230°SW
Pressure: 30.31"   Gusts: NA
Location:  39.0316°N, 84.4619°W
Report Text: KLUK 221353Z 23005KT 10SM FEW055 SCT070 OVC100 02/M02 A3031 RMK AO2 RAB15E33 SLP267 P0000 T00171017
Loading
Personal Weather Stations






























Interactive Weather Map New forecast layout! Learn more

10-Day Weather Forecast

Advertisements
Track Severe Weather on mobile